sensor_id;sensor_type;location;lat;lon;timestamp;temperature;humidity
19732;DHT22;10017;54.350;18.532;2022-09-09T00:02:19;13.70;1.00
19732;DHT22;10017;54.350;18.532;2022-09-09T00:05:14;13.70;1.00
19732;DHT22;10017;54.350;18.532;2022-09-09T00:07:47;13.70;1.00
19732;DHT22;10017;54.350;18.532;2022-09-09T00:10:38;13.70;1.00
19732;DHT22;10017;54.350;18.532;2022-09-09T00:15:46;13.70;1.00
19732;DHT22;10017;54.350;18.532;2022-09-09T00:18:28;13.60;1.00
19732;DHT22;10017;54.350;18.532;2022-09-09T00:21:07;13.60;1.00
19732;DHT22;10017;54.350;18.532;2022-09-09T00:23:46;13.60;1.00
19732;DHT22;10017;54.350;18.532;2022-09-09T00:26:30;13.60;1.00
19732;DHT22;10017;54.350;18.532;2022-09-09T00:31:47;13.60;1.00
19732;DHT22;10017;54.350;18.532;2022-09-09T00:34:23;13.60;1.00
19732;DHT22;10017;54.350;18.532;2022-09-09T00:36:55;13.60;1.00
19732;DHT22;10017;54.350;18.532;2022-09-09T00:39:32;13.60;1.00
19732;DHT22;10017;54.350;18.532;2022-09-09T00:44:58;13.60;1.00
19732;DHT22;10017;54.350;18.532;2022-09-09T00:47:40;13.60;1.00
19732;DHT22;10017;54.350;18.532;2022-09-09T00:58:58;13.60;1.00
19732;DHT22;10017;54.350;18.532;2022-09-09T01:01:31;13.60;1.00
19732;DHT22;10017;54.350;18.532;2022-09-09T01:04:04;13.70;1.00
19732;DHT22;10017;54.350;18.532;2022-09-09T01:06:41;13.70;1.00
19732;DHT22;10017;54.350;18.532;2022-09-09T01:22:19;13.70;1.00
19732;DHT22;10017;54.350;18.532;2022-09-09T01:27:48;13.70;1.00
19732;DHT22;10017;54.350;18.532;2022-09-09T01:30:21;13.60;1.00
19732;DHT22;10017;54.350;18.532;2022-09-09T01:32:54;13.60;1.00
19732;DHT22;10017;54.350;18.532;2022-09-09T01:38:04;13.60;1.00
19732;DHT22;10017;54.350;18.532;2022-09-09T01:40:36;13.60;1.00
19732;DHT22;10017;54.350;18.532;2022-09-09T01:43:08;13.60;1.00
19732;DHT22;10017;54.350;18.532;2022-09-09T01:45:40;13.60;1.00
19732;DHT22;10017;54.350;18.532;2022-09-09T01:48:13;13.60;1.00
19732;DHT22;10017;54.350;18.532;2022-09-09T01:50:45;13.50;1.00
19732;DHT22;10017;54.350;18.532;2022-09-09T01:53:18;13.50;1.00
19732;DHT22;10017;54.350;18.532;2022-09-09T02:03:52;13.60;1.00
19732;DHT22;10017;54.350;18.532;2022-09-09T02:06:37;13.60;1.00
19732;DHT22;10017;54.350;18.532;2022-09-09T02:09:10;13.60;1.00
19732;DHT22;10017;54.350;18.532;2022-09-09T02:11:43;13.60;1.00
19732;DHT22;10017;54.350;18.532;2022-09-09T02:14:17;13.60;1.00
19732;DHT22;10017;54.350;18.532;2022-09-09T02:16:52;13.60;1.00
19732;DHT22;10017;54.350;18.532;2022-09-09T02:21:57;13.50;1.00
19732;DHT22;10017;54.350;18.532;2022-09-09T02:24:32;13.60;1.00
19732;DHT22;10017;54.350;18.532;2022-09-09T02:27:05;13.60;1.00
19732;DHT22;10017;54.350;18.532;2022-09-09T02:29:40;13.60;1.00
19732;DHT22;10017;54.350;18.532;2022-09-09T02:32:20;13.60;1.00
19732;DHT22;10017;54.350;18.532;2022-09-09T02:34:54;13.60;1.00
19732;DHT22;10017;54.350;18.532;2022-09-09T02:37:32;13.60;1.00
19732;DHT22;10017;54.350;18.532;2022-09-09T02:40:07;13.60;1.00
19732;DHT22;10017;54.350;18.532;2022-09-09T02:42:40;13.60;1.00
19732;DHT22;10017;54.350;18.532;2022-09-09T02:45:18;13.60;1.00
19732;DHT22;10017;54.350;18.532;2022-09-09T02:50:37;13.60;1.00
19732;DHT22;10017;54.350;18.532;2022-09-09T02:53:18;13.50;1.00
19732;DHT22;10017;54.350;18.532;2022-09-09T02:55:57;13.50;1.00
19732;DHT22;10017;54.350;18.532;2022-09-09T02:58:32;13.50;1.00
19732;DHT22;10017;54.350;18.532;2022-09-09T03:01:04;13.50;1.00
19732;DHT22;10017;54.350;18.532;2022-09-09T03:03:36;13.50;1.00
19732;DHT22;10017;54.350;18.532;2022-09-09T03:06:08;13.40;1.00
19732;DHT22;10017;54.350;18.532;2022-09-09T03:08:40;13.40;1.00
19732;DHT22;10017;54.350;18.532;2022-09-09T03:11:19;13.40;1.00
19732;DHT22;10017;54.350;18.532;2022-09-09T03:13:54;13.30;1.00
19732;DHT22;10017;54.350;18.532;2022-09-09T03:16:27;13.30;1.00
19732;DHT22;10017;54.350;18.532;2022-09-09T03:18:59;13.30;3.20
19732;DHT22;10017;54.350;18.532;2022-09-09T03:21:31;13.20;47.80
19732;DHT22;10017;54.350;18.532;2022-09-09T03:24:03;13.10;99.90
19732;DHT22;10017;54.350;18.532;2022-09-09T03:26:35;12.90;99.90
19732;DHT22;10017;54.350;18.532;2022-09-09T03:29:09;12.80;99.90
19732;DHT22;10017;54.350;18.532;2022-09-09T03:31:43;12.70;99.90
19732;DHT22;10017;54.350;18.532;2022-09-09T03:34:15;12.50;99.90
19732;DHT22;10017;54.350;18.532;2022-09-09T03:36:46;12.40;99.90
19732;DHT22;10017;54.350;18.532;2022-09-09T03:39:20;12.20;99.90
19732;DHT22;10017;54.350;18.532;2022-09-09T03:41:51;12.20;99.90
19732;DHT22;10017;54.350;18.532;2022-09-09T03:44:23;12.10;99.90
19732;DHT22;10017;54.350;18.532;2022-09-09T03:46:55;12.10;99.90
19732;DHT22;10017;54.350;18.532;2022-09-09T03:49:27;12.00;99.90
19732;DHT22;10017;54.350;18.532;2022-09-09T03:52:02;12.00;99.90
19732;DHT22;10017;54.350;18.532;2022-09-09T03:54:34;11.90;99.90
19732;DHT22;10017;54.350;18.532;2022-09-09T03:57:06;11.90;99.90
19732;DHT22;10017;54.350;18.532;2022-09-09T03:59:38;11.80;99.90
19732;DHT22;10017;54.350;18.532;2022-09-09T04:02:10;11.80;99.90
19732;DHT22;10017;54.350;18.532;2022-09-09T04:04:42;11.70;99.90
19732;DHT22;10017;54.350;18.532;2022-09-09T04:07:14;11.70;99.90
19732;DHT22;10017;54.350;18.532;2022-09-09T04:09:45;11.70;99.90
19732;DHT22;10017;54.350;18.532;2022-09-09T04:12:17;11.70;99.90
19732;DHT22;10017;54.350;18.532;2022-09-09T04:14:49;11.60;99.90
19732;DHT22;10017;54.350;18.532;2022-09-09T04:17:23;11.60;99.90
19732;DHT22;10017;54.350;18.532;2022-09-09T04:19:55;11.60;99.90
19732;DHT22;10017;54.350;18.532;2022-09-09T04:22:28;11.60;99.90
19732;DHT22;10017;54.350;18.532;2022-09-09T04:25:00;11.50;99.90
19732;DHT22;10017;54.350;18.532;2022-09-09T04:27:32;11.50;99.90
19732;DHT22;10017;54.350;18.532;2022-09-09T04:30:03;11.50;99.90
19732;DHT22;10017;54.350;18.532;2022-09-09T04:32:36;11.50;99.90
19732;DHT22;10017;54.350;18.532;2022-09-09T04:35:08;11.50;99.90
19732;DHT22;10017;54.350;18.532;2022-09-09T04:37:40;11.50;99.90
19732;DHT22;10017;54.350;18.532;2022-09-09T04:40:12;11.40;99.90
19732;DHT22;10017;54.350;18.532;2022-09-09T04:42:44;11.40;99.90
19732;DHT22;10017;54.350;18.532;2022-09-09T04:45:16;11.40;99.90
19732;DHT22;10017;54.350;18.532;2022-09-09T04:47:48;11.40;99.90
19732;DHT22;10017;54.350;18.532;2022-09-09T04:50:20;11.40;99.90
19732;DHT22;10017;54.350;18.532;2022-09-09T04:52:52;11.40;99.90
19732;DHT22;10017;54.350;18.532;2022-09-09T04:55:24;11.40;99.90
19732;DHT22;10017;54.350;18.532;2022-09-09T04:57:55;11.40;99.90
19732;DHT22;10017;54.350;18.532;2022-09-09T05:00:28;11.40;99.90
19732;DHT22;10017;54.350;18.532;2022-09-09T05:03:06;11.30;99.90
19732;DHT22;10017;54.350;18.532;2022-09-09T05:05:40;11.30;99.90
19732;DHT22;10017;54.350;18.532;2022-09-09T05:08:12;11.30;99.90
19732;DHT22;10017;54.350;18.532;2022-09-09T05:10:43;11.30;99.90
19732;DHT22;10017;54.350;18.532;2022-09-09T05:13:15;11.30;99.90
19732;DHT22;10017;54.350;18.532;2022-09-09T05:15:56;11.30;99.90
19732;DHT22;10017;54.350;18.532;2022-09-09T05:18:33;11.20;99.90
19732;DHT22;10017;54.350;18.532;2022-09-09T05:21:05;11.20;99.90
19732;DHT22;10017;54.350;18.532;2022-09-09T05:23:37;11.20;99.90
19732;DHT22;10017;54.350;18.532;2022-09-09T05:26:13;11.20;99.90
19732;DHT22;10017;54.350;18.532;2022-09-09T05:28:48;11.20;99.90
19732;DHT22;10017;54.350;18.532;2022-09-09T05:31:20;11.20;99.90
19732;DHT22;10017;54.350;18.532;2022-09-09T05:33:52;11.20;99.90
19732;DHT22;10017;54.350;18.532;2022-09-09T05:36:23;11.10;99.90
19732;DHT22;10017;54.350;18.532;2022-09-09T05:38:55;11.10;99.90
19732;DHT22;10017;54.350;18.532;2022-09-09T05:41:27;11.10;99.90
19732;DHT22;10017;54.350;18.532;2022-09-09T05:44:02;11.10;99.90
19732;DHT22;10017;54.350;18.532;2022-09-09T05:46:35;11.10;99.90
19732;DHT22;10017;54.350;18.532;2022-09-09T05:49:07;11.10;99.90
19732;DHT22;10017;54.350;18.532;2022-09-09T05:51:39;11.00;99.90
19732;DHT22;10017;54.350;18.532;2022-09-09T05:54:11;11.10;99.90
19732;DHT22;10017;54.350;18.532;2022-09-09T05:56:46;11.10;99.90
19732;DHT22;10017;54.350;18.532;2022-09-09T05:59:22;11.10;99.90
19732;DHT22;10017;54.350;18.532;2022-09-09T06:01:55;11.10;99.90
19732;DHT22;10017;54.350;18.532;2022-09-09T06:04:27;11.10;99.90
19732;DHT22;10017;54.350;18.532;2022-09-09T06:06:58;11.00;99.90
19732;DHT22;10017;54.350;18.532;2022-09-09T06:09:30;11.00;99.90
19732;DHT22;10017;54.350;18.532;2022-09-09T06:12:02;10.90;99.90
19732;DHT22;10017;54.350;18.532;2022-09-09T06:14:34;10.90;99.90
19732;DHT22;10017;54.350;18.532;2022-09-09T06:17:06;10.80;99.90
19732;DHT22;10017;54.350;18.532;2022-09-09T06:19:38;10.80;99.90
19732;DHT22;10017;54.350;18.532;2022-09-09T06:22:09;10.70;99.90
19732;DHT22;10017;54.350;18.532;2022-09-09T06:24:44;10.70;99.90
19732;DHT22;10017;54.350;18.532;2022-09-09T06:27:16;10.70;99.90
19732;DHT22;10017;54.350;18.532;2022-09-09T06:29:48;10.70;99.90
19732;DHT22;10017;54.350;18.532;2022-09-09T06:32:20;10.60;99.90
19732;DHT22;10017;54.350;18.532;2022-09-09T06:34:51;10.60;99.90
19732;DHT22;10017;54.350;18.532;2022-09-09T06:37:23;10.60;99.90
19732;DHT22;10017;54.350;18.532;2022-09-09T06:39:58;10.60;99.90
19732;DHT22;10017;54.350;18.532;2022-09-09T06:42:30;10.60;99.90
19732;DHT22;10017;54.350;18.532;2022-09-09T06:45:03;10.60;99.90
19732;DHT22;10017;54.350;18.532;2022-09-09T06:47:34;10.60;99.90
19732;DHT22;10017;54.350;18.532;2022-09-09T06:50:06;10.60;99.90
19732;DHT22;10017;54.350;18.532;2022-09-09T06:52:38;10.50;99.90
19732;DHT22;10017;54.350;18.532;2022-09-09T06:55:10;10.50;99.90
19732;DHT22;10017;54.350;18.532;2022-09-09T06:57:44;10.50;99.90
19732;DHT22;10017;54.350;18.532;2022-09-09T07:00:16;10.50;99.90
19732;DHT22;10017;54.350;18.532;2022-09-09T07:02:48;10.50;99.90
19732;DHT22;10017;54.350;18.532;2022-09-09T07:05:24;10.40;99.90
19732;DHT22;10017;54.350;18.532;2022-09-09T07:08:01;10.40;99.90
19732;DHT22;10017;54.350;18.532;2022-09-09T07:10:33;10.40;99.90
19732;DHT22;10017;54.350;18.532;2022-09-09T07:13:05;10.40;99.90
19732;DHT22;10017;54.350;18.532;2022-09-09T07:15:38;10.40;99.90
19732;DHT22;10017;54.350;18.532;2022-09-09T07:18:12;10.40;99.90
19732;DHT22;10017;54.350;18.532;2022-09-09T07:20:54;10.40;99.90
19732;DHT22;10017;54.350;18.532;2022-09-09T07:23:31;10.40;99.90
19732;DHT22;10017;54.350;18.532;2022-09-09T07:26:11;10.40;99.90
19732;DHT22;10017;54.350;18.532;2022-09-09T07:28:43;10.40;99.90
19732;DHT22;10017;54.350;18.532;2022-09-09T07:31:16;10.40;99.90
19732;DHT22;10017;54.350;18.532;2022-09-09T07:33:48;10.40;99.90
19732;DHT22;10017;54.350;18.532;2022-09-09T07:36:24;10.40;99.90
19732;DHT22;10017;54.350;18.532;2022-09-09T07:39:04;10.40;99.90
19732;DHT22;10017;54.350;18.532;2022-09-09T07:41:39;10.40;99.90
19732;DHT22;10017;54.350;18.532;2022-09-09T07:44:16;10.40;99.90
19732;DHT22;10017;54.350;18.532;2022-09-09T07:46:48;10.50;99.90
19732;DHT22;10017;54.350;18.532;2022-09-09T07:49:20;10.50;99.90
19732;DHT22;10017;54.350;18.532;2022-09-09T07:52:00;10.50;99.90
19732;DHT22;10017;54.350;18.532;2022-09-09T07:54:32;10.50;99.90
19732;DHT22;10017;54.350;18.532;2022-09-09T07:57:04;10.50;99.90
19732;DHT22;10017;54.350;18.532;2022-09-09T07:59:35;10.50;99.90
19732;DHT22;10017;54.350;18.532;2022-09-09T08:02:08;10.50;99.90
19732;DHT22;10017;54.350;18.532;2022-09-09T08:04:41;10.50;99.90
19732;DHT22;10017;54.350;18.532;2022-09-09T08:07:12;10.40;99.90
19732;DHT22;10017;54.350;18.532;2022-09-09T08:09:44;10.40;99.90
19732;DHT22;10017;54.350;18.532;2022-09-09T08:12:18;10.50;99.90
19732;DHT22;10017;54.350;18.532;2022-09-09T08:14:50;10.50;99.90
19732;DHT22;10017;54.350;18.532;2022-09-09T08:17:26;10.50;99.90
19732;DHT22;10017;54.350;18.532;2022-09-09T08:20:00;10.50;99.90
19732;DHT22;10017;54.350;18.532;2022-09-09T08:22:36;10.50;99.90
19732;DHT22;10017;54.350;18.532;2022-09-09T08:25:09;10.60;99.90
19732;DHT22;10017;54.350;18.532;2022-09-09T08:27:41;10.60;99.90
19732;DHT22;10017;54.350;18.532;2022-09-09T08:30:13;10.60;99.90
19732;DHT22;10017;54.350;18.532;2022-09-09T08:32:45;10.60;99.90
19732;DHT22;10017;54.350;18.532;2022-09-09T08:35:19;10.60;99.90
19732;DHT22;10017;54.350;18.532;2022-09-09T08:37:53;10.60;99.90
19732;DHT22;10017;54.350;18.532;2022-09-09T08:40:29;10.60;99.90
19732;DHT22;10017;54.350;18.532;2022-09-09T08:43:04;10.60;99.90
19732;DHT22;10017;54.350;18.532;2022-09-09T08:46:00;10.60;99.90
19732;DHT22;10017;54.350;18.532;2022-09-09T08:48:41;10.50;99.90
19732;DHT22;10017;54.350;18.532;2022-09-09T08:51:15;10.50;99.90
19732;DHT22;10017;54.350;18.532;2022-09-09T08:53:49;10.60;99.90
19732;DHT22;10017;54.350;18.532;2022-09-09T08:56:26;10.70;99.90
19732;DHT22;10017;54.350;18.532;2022-09-09T08:59:01;10.70;99.90
19732;DHT22;10017;54.350;18.532;2022-09-09T09:04:26;10.70;99.90
19732;DHT22;10017;54.350;18.532;2022-09-09T09:09:38;10.80;99.90
19732;DHT22;10017;54.350;18.532;2022-09-09T09:12:17;10.80;99.90
19732;DHT22;10017;54.350;18.532;2022-09-09T09:14:53;10.90;99.90
19732;DHT22;10017;54.350;18.532;2022-09-09T09:17:27;10.90;99.90
19732;DHT22;10017;54.350;18.532;2022-09-09T09:20:02;10.90;99.90
19732;DHT22;10017;54.350;18.532;2022-09-09T09:22:44;10.90;99.90
19732;DHT22;10017;54.350;18.532;2022-09-09T09:25:19;11.00;99.90
19732;DHT22;10017;54.350;18.532;2022-09-09T09:30:29;11.00;99.90
19732;DHT22;10017;54.350;18.532;2022-09-09T09:33:06;10.90;99.90
19732;DHT22;10017;54.350;18.532;2022-09-09T09:35:42;11.00;99.90
19732;DHT22;10017;54.350;18.532;2022-09-09T09:38:21;11.00;99.90
19732;DHT22;10017;54.350;18.532;2022-09-09T09:41:16;11.10;99.90
19732;DHT22;10017;54.350;18.532;2022-09-09T09:43:53;11.10;99.90
19732;DHT22;10017;54.350;18.532;2022-09-09T09:46:25;11.10;99.90
19732;DHT22;10017;54.350;18.532;2022-09-09T09:48:59;11.10;99.90
19732;DHT22;10017;54.350;18.532;2022-09-09T09:51:32;11.20;99.90
19732;DHT22;10017;54.350;18.532;2022-09-09T09:54:07;11.20;99.90
19732;DHT22;10017;54.350;18.532;2022-09-09T09:56:41;11.10;99.90
19732;DHT22;10017;54.350;18.532;2022-09-09T09:59:22;11.20;99.90
19732;DHT22;10017;54.350;18.532;2022-09-09T10:04:47;11.20;99.90
19732;DHT22;10017;54.350;18.532;2022-09-09T10:07:20;11.20;99.90
19732;DHT22;10017;54.350;18.532;2022-09-09T10:09:55;11.10;99.90
19732;DHT22;10017;54.350;18.532;2022-09-09T10:17:59;11.20;99.90
19732;DHT22;10017;54.350;18.532;2022-09-09T10:20:42;11.30;99.90
19732;DHT22;10017;54.350;18.532;2022-09-09T10:31:16;11.40;99.90
19732;DHT22;10017;54.350;18.532;2022-09-09T10:33:56;11.50;99.90
19732;DHT22;10017;54.350;18.532;2022-09-09T10:36:29;11.60;99.90
19732;DHT22;10017;54.350;18.532;2022-09-09T10:39:06;11.60;99.90
19732;DHT22;10017;54.350;18.532;2022-09-09T10:44:33;11.70;99.90
19732;DHT22;10017;54.350;18.532;2022-09-09T10:52:46;11.70;99.90
19732;DHT22;10017;54.350;18.532;2022-09-09T10:55:24;11.70;99.90
19732;DHT22;10017;54.350;18.532;2022-09-09T10:58:00;11.70;99.90
19732;DHT22;10017;54.350;18.532;2022-09-09T11:00:41;11.80;99.90
19732;DHT22;10017;54.350;18.532;2022-09-09T11:03:35;11.80;99.90
19732;DHT22;10017;54.350;18.532;2022-09-09T11:06:09;11.80;99.90
19732;DHT22;10017;54.350;18.532;2022-09-09T11:08:43;11.90;99.90
19732;DHT22;10017;54.350;18.532;2022-09-09T11:14:36;12.00;99.90
19732;DHT22;10017;54.350;18.532;2022-09-09T11:16:50;12.20;99.90
19732;DHT22;10017;54.350;18.532;2022-09-09T11:21:57;12.20;99.90
19732;DHT22;10017;54.350;18.532;2022-09-09T11:24:34;12.20;99.90
19732;DHT22;10017;54.350;18.532;2022-09-09T11:27:17;12.20;99.90
19732;DHT22;10017;54.350;18.532;2022-09-09T11:32:28;12.20;99.90
19732;DHT22;10017;54.350;18.532;2022-09-09T11:40:26;12.10;99.90
19732;DHT22;10017;54.350;18.532;2022-09-09T11:45:42;12.10;99.90
19732;DHT22;10017;54.350;18.532;2022-09-09T11:51:09;12.20;99.90
19732;DHT22;10017;54.350;18.532;2022-09-09T11:56:32;12.10;99.90
19732;DHT22;10017;54.350;18.532;2022-09-09T11:59:20;12.10;99.90
19732;DHT22;10017;54.350;18.532;2022-09-09T12:02:00;12.10;99.90
19732;DHT22;10017;54.350;18.532;2022-09-09T12:04:39;12.10;99.90
19732;DHT22;10017;54.350;18.532;2022-09-09T12:07:28;12.20;99.90
19732;DHT22;10017;54.350;18.532;2022-09-09T12:10:17;12.10;99.90
19732;DHT22;10017;54.350;18.532;2022-09-09T12:12:50;12.20;99.90
19732;DHT22;10017;54.350;18.532;2022-09-09T12:15:24;12.10;99.90
19732;DHT22;10017;54.350;18.532;2022-09-09T12:17:57;12.10;99.90
19732;DHT22;10017;54.350;18.532;2022-09-09T12:20:35;12.20;99.90
19732;DHT22;10017;54.350;18.532;2022-09-09T12:26:11;12.20;99.90
19732;DHT22;10017;54.350;18.532;2022-09-09T12:28:52;12.10;99.90
19732;DHT22;10017;54.350;18.532;2022-09-09T12:31:28;12.10;99.90
19732;DHT22;10017;54.350;18.532;2022-09-09T12:34:13;12.20;99.90
19732;DHT22;10017;54.350;18.532;2022-09-09T12:36:48;12.10;99.90
19732;DHT22;10017;54.350;18.532;2022-09-09T12:39:29;12.10;99.90
19732;DHT22;10017;54.350;18.532;2022-09-09T12:42:03;12.10;99.90
19732;DHT22;10017;54.350;18.532;2022-09-09T12:44:35;12.10;99.90
19732;DHT22;10017;54.350;18.532;2022-09-09T12:47:09;12.10;99.90
19732;DHT22;10017;54.350;18.532;2022-09-09T12:49:43;12.10;99.90
19732;DHT22;10017;54.350;18.532;2022-09-09T12:54:51;12.10;99.90
19732;DHT22;10017;54.350;18.532;2022-09-09T12:57:23;12.10;99.90
19732;DHT22;10017;54.350;18.532;2022-09-09T13:00:04;12.20;99.90
19732;DHT22;10017;54.350;18.532;2022-09-09T13:02:44;12.20;99.90
19732;DHT22;10017;54.350;18.532;2022-09-09T13:05:23;12.20;99.90
19732;DHT22;10017;54.350;18.532;2022-09-09T13:08:11;12.20;99.90
19732;DHT22;10017;54.350;18.532;2022-09-09T13:10:44;12.20;99.90
19732;DHT22;10017;54.350;18.532;2022-09-09T13:13:35;12.20;99.90
19732;DHT22;10017;54.350;18.532;2022-09-09T13:16:18;12.20;99.90
19732;DHT22;10017;54.350;18.532;2022-09-09T13:18:50;12.20;99.90
19732;DHT22;10017;54.350;18.532;2022-09-09T13:21:35;12.20;99.90
19732;DHT22;10017;54.350;18.532;2022-09-09T13:24:24;12.20;99.90
19732;DHT22;10017;54.350;18.532;2022-09-09T13:26:59;12.20;99.90
19732;DHT22;10017;54.350;18.532;2022-09-09T13:29:33;12.20;99.90
19732;DHT22;10017;54.350;18.532;2022-09-09T13:32:06;12.20;99.90
19732;DHT22;10017;54.350;18.532;2022-09-09T13:34:39;12.20;99.90
19732;DHT22;10017;54.350;18.532;2022-09-09T13:37:23;12.20;99.90
19732;DHT22;10017;54.350;18.532;2022-09-09T13:39:59;12.20;99.90
19732;DHT22;10017;54.350;18.532;2022-09-09T13:42:35;12.20;99.90
19732;DHT22;10017;54.350;18.532;2022-09-09T13:45:19;12.20;99.90
19732;DHT22;10017;54.350;18.532;2022-09-09T13:47:55;12.20;99.90
19732;DHT22;10017;54.350;18.532;2022-09-09T13:50:27;12.10;99.90
19732;DHT22;10017;54.350;18.532;2022-09-09T13:52:59;12.10;99.90
19732;DHT22;10017;54.350;18.532;2022-09-09T13:55:31;12.10;99.90
19732;DHT22;10017;54.350;18.532;2022-09-09T13:58:03;12.10;99.90
19732;DHT22;10017;54.350;18.532;2022-09-09T14:00:36;12.10;99.90
19732;DHT22;10017;54.350;18.532;2022-09-09T14:03:08;12.00;99.90
19732;DHT22;10017;54.350;18.532;2022-09-09T14:05:42;12.00;99.90
19732;DHT22;10017;54.350;18.532;2022-09-09T14:08:22;12.10;99.90
19732;DHT22;10017;54.350;18.532;2022-09-09T14:10:54;12.10;99.90
19732;DHT22;10017;54.350;18.532;2022-09-09T14:13:27;12.10;99.90
19732;DHT22;10017;54.350;18.532;2022-09-09T14:15:59;12.10;99.90
19732;DHT22;10017;54.350;18.532;2022-09-09T14:18:31;12.20;99.90
19732;DHT22;10017;54.350;18.532;2022-09-09T14:21:03;12.10;99.90
19732;DHT22;10017;54.350;18.532;2022-09-09T14:23:34;12.20;99.90
19732;DHT22;10017;54.350;18.532;2022-09-09T14:26:06;12.20;99.90
19732;DHT22;10017;54.350;18.532;2022-09-09T14:28:38;12.20;99.90
19732;DHT22;10017;54.350;18.532;2022-09-09T14:31:27;12.20;99.90
19732;DHT22;10017;54.350;18.532;2022-09-09T14:33:59;12.20;99.90
19732;DHT22;10017;54.350;18.532;2022-09-09T14:36:30;12.20;99.90
19732;DHT22;10017;54.350;18.532;2022-09-09T14:39:02;12.20;99.90
19732;DHT22;10017;54.350;18.532;2022-09-09T14:41:37;12.20;99.90
19732;DHT22;10017;54.350;18.532;2022-09-09T14:44:11;12.20;99.90
19732;DHT22;10017;54.350;18.532;2022-09-09T14:46:43;12.20;99.90
19732;DHT22;10017;54.350;18.532;2022-09-09T14:49:15;12.20;99.90
19732;DHT22;10017;54.350;18.532;2022-09-09T14:51:47;12.20;99.90
19732;DHT22;10017;54.350;18.532;2022-09-09T14:54:19;12.20;99.90
19732;DHT22;10017;54.350;18.532;2022-09-09T14:56:52;12.30;99.90
19732;DHT22;10017;54.350;18.532;2022-09-09T14:59:24;12.20;99.90
19732;DHT22;10017;54.350;18.532;2022-09-09T15:01:56;12.20;99.90
19732;DHT22;10017;54.350;18.532;2022-09-09T15:04:28;12.20;99.90
19732;DHT22;10017;54.350;18.532;2022-09-09T15:07:00;12.20;99.90
19732;DHT22;10017;54.350;18.532;2022-09-09T15:09:32;12.30;99.90
19732;DHT22;10017;54.350;18.532;2022-09-09T15:12:04;12.30;99.90
19732;DHT22;10017;54.350;18.532;2022-09-09T15:14:36;12.20;99.90
19732;DHT22;10017;54.350;18.532;2022-09-09T15:17:08;12.20;99.90
19732;DHT22;10017;54.350;18.532;2022-09-09T15:19:40;12.20;99.90
19732;DHT22;10017;54.350;18.532;2022-09-09T15:22:13;12.20;99.90
19732;DHT22;10017;54.350;18.532;2022-09-09T15:24:45;12.20;99.90
19732;DHT22;10017;54.350;18.532;2022-09-09T15:27:17;12.30;99.90
19732;DHT22;10017;54.350;18.532;2022-09-09T15:29:49;12.30;99.90
19732;DHT22;10017;54.350;18.532;2022-09-09T15:32:23;12.30;99.90
19732;DHT22;10017;54.350;18.532;2022-09-09T15:34:54;12.30;99.90
19732;DHT22;10017;54.350;18.532;2022-09-09T15:37:26;12.30;99.90
19732;DHT22;10017;54.350;18.532;2022-09-09T15:39:58;12.30;99.90
19732;DHT22;10017;54.350;18.532;2022-09-09T15:42:31;12.30;99.90
19732;DHT22;10017;54.350;18.532;2022-09-09T15:45:03;12.30;99.90
19732;DHT22;10017;54.350;18.532;2022-09-09T15:47:36;12.30;99.90
19732;DHT22;10017;54.350;18.532;2022-09-09T15:50:08;12.30;99.90
19732;DHT22;10017;54.350;18.532;2022-09-09T15:52:40;12.30;99.90
19732;DHT22;10017;54.350;18.532;2022-09-09T15:55:12;12.30;99.90
19732;DHT22;10017;54.350;18.532;2022-09-09T15:57:47;12.30;99.90
19732;DHT22;10017;54.350;18.532;2022-09-09T16:00:21;12.30;99.90
19732;DHT22;10017;54.350;18.532;2022-09-09T16:02:54;12.30;99.90
19732;DHT22;10017;54.350;18.532;2022-09-09T16:05:26;12.30;99.90
19732;DHT22;10017;54.350;18.532;2022-09-09T16:07:58;12.30;99.90
19732;DHT22;10017;54.350;18.532;2022-09-09T16:10:30;12.30;99.90
19732;DHT22;10017;54.350;18.532;2022-09-09T16:13:05;12.30;99.90
19732;DHT22;10017;54.350;18.532;2022-09-09T16:15:37;12.30;99.90
19732;DHT22;10017;54.350;18.532;2022-09-09T16:18:09;12.30;99.90
19732;DHT22;10017;54.350;18.532;2022-09-09T16:20:40;12.30;99.90
19732;DHT22;10017;54.350;18.532;2022-09-09T16:23:13;12.30;99.90
19732;DHT22;10017;54.350;18.532;2022-09-09T16:25:52;12.30;99.90
19732;DHT22;10017;54.350;18.532;2022-09-09T16:28:24;12.20;99.90
19732;DHT22;10017;54.350;18.532;2022-09-09T16:30:55;12.20;99.90
19732;DHT22;10017;54.350;18.532;2022-09-09T16:33:28;12.20;99.90
19732;DHT22;10017;54.350;18.532;2022-09-09T16:36:06;12.20;99.90
19732;DHT22;10017;54.350;18.532;2022-09-09T16:38:40;12.20;99.90
19732;DHT22;10017;54.350;18.532;2022-09-09T16:41:13;12.20;99.90
19732;DHT22;10017;54.350;18.532;2022-09-09T16:43:45;12.30;99.90
19732;DHT22;10017;54.350;18.532;2022-09-09T16:46:17;12.20;99.90
19732;DHT22;10017;54.350;18.532;2022-09-09T16:48:50;12.30;99.90
19732;DHT22;10017;54.350;18.532;2022-09-09T16:51:44;12.30;99.90
19732;DHT22;10017;54.350;18.532;2022-09-09T16:54:14;12.20;99.90
19732;DHT22;10017;54.350;18.532;2022-09-09T16:56:47;12.20;99.90
19732;DHT22;10017;54.350;18.532;2022-09-09T16:59:20;12.20;99.90
19732;DHT22;10017;54.350;18.532;2022-09-09T17:01:52;12.20;99.90
19732;DHT22;10017;54.350;18.532;2022-09-09T17:04:27;12.20;99.90
19732;DHT22;10017;54.350;18.532;2022-09-09T17:06:59;12.20;99.90
19732;DHT22;10017;54.350;18.532;2022-09-09T17:09:32;12.20;99.90
19732;DHT22;10017;54.350;18.532;2022-09-09T17:12:03;12.30;99.90
19732;DHT22;10017;54.350;18.532;2022-09-09T17:14:36;12.20;99.90
19732;DHT22;10017;54.350;18.532;2022-09-09T17:17:08;12.30;99.90
19732;DHT22;10017;54.350;18.532;2022-09-09T17:19:59;12.30;99.90
19732;DHT22;10017;54.350;18.532;2022-09-09T17:22:34;12.30;99.90
19732;DHT22;10017;54.350;18.532;2022-09-09T17:25:08;12.30;99.90
19732;DHT22;10017;54.350;18.532;2022-09-09T17:27:40;12.20;99.90
19732;DHT22;10017;54.350;18.532;2022-09-09T17:30:12;12.20;99.90
19732;DHT22;10017;54.350;18.532;2022-09-09T17:32:44;12.20;99.90
19732;DHT22;10017;54.350;18.532;2022-09-09T17:35:16;12.20;99.90
19732;DHT22;10017;54.350;18.532;2022-09-09T17:37:47;12.20;99.90
19732;DHT22;10017;54.350;18.532;2022-09-09T17:40:20;12.20;99.90
19732;DHT22;10017;54.350;18.532;2022-09-09T17:42:51;12.30;99.90
19732;DHT22;10017;54.350;18.532;2022-09-09T17:45:23;12.20;99.90
19732;DHT22;10017;54.350;18.532;2022-09-09T17:47:55;12.20;99.90
19732;DHT22;10017;54.350;18.532;2022-09-09T17:50:28;12.20;99.90
19732;DHT22;10017;54.350;18.532;2022-09-09T17:52:59;12.20;99.90